Terminal Aerodrome Forecast
Issued by NWS Newport/Morehead City, NC

Home | Current Version | Previous Version | Graphics & Text | Print | Product List | Glossary On
Versions: 1 2 3 4 5 6 7 8 9 10 11 12 13 14
413
FTUS42 KMHX 212346
TAFEWN
TAF
KEWN 212346Z 2200/2224 11005KT P6SM VCSH OVC060
     FM220400 VRB03KT P6SM -SHRA OVC035
     FM220500 VRB03KT P6SM -SHRA OVC030
     FM220800 00000KT P6SM -SHRA SCT007 OVC015
     FM221000 00000KT 3SM BR SCT007 BKN010
     FM221300 34006KT P6SM BKN010
     FM221600 34008KT P6SM SCT250=

USA.gov is the U.S. government's official web portal to all federal, state and local government web resources and services.